Record high temperature 35.2°C Record low temperature -28.5°C Record high gust 73.6 km/h Record high average 52.2 km/h Record daily rain 78.0 mm Record low windchill -39.6°C Record high barometer 1045.2 hPa Record low barometer 973.0 hPa
Daily high pressure 1029 hPa Daily low pressure 1029 hPa Daily low windchill -10.9°C Daily high heat index -9.0°C Daily high gust speed 0.0 kmh W Daily high average speed 0.0 kmh WSW
Beaconsfield Home Weather Data WMR-968
LAST READING AT TIME: 04:55 DATE: December 21 2014, time of next update: 05:00
Current WeatherNight time/Dry/Overcast Current Temperature -9.0°C (15.8°F), Apparent temp -11.6°C
Maximum Temperature (since midnight)-9.0°C at: 04:42 Minimum Temperature (since midnight)-10.9°C at: 00:00
Average windspeed (ten minute)0.0 kmh (0.0 kts) Wind Direction (ten minute)NNE (18°)
Windchill Temperature -9.0°C Maximum Gust (last hour)0.0 kmh (0.0 kts) at: 04:00
Maximum Gust (since midnight)0.0 kmh (0.0 kts) at: 10:00 Maximum 1 minute average (since midnight)0.0 kmh (0.0 kts) at: 10:20
Rainfall (last hour)0.0 mm Rainfall (since midnight)0.0 mm (0.00 in.)---
Rainfall This month 9.6 mm (0.38 in.) Rainfall To date this year 747.4 mm (29.43 in.)
Maximum rain per minute (last hour)0.0 mm/min Maximum rain per hour (last 6 hours)0.0 mm/hour
Yesterdays rainfall 0.0 mm DewPoint -13.1°C (Wet Bulb :-9.9°C )
Humidity 72 %, Humidex -13.3°C Barometer corrected to msl1029 hPa
Pressure change 0 hPa (last hour) Trend (last hour)STEADY
Pressure change (last 12 hours)+1 hPa Pressure change (last 6 hours)+0 hPa
Current Indoor Temp. 18.9°C
Current Indoor Hum. 28%
Current 00:00 hours of sunshine today, current sky: Night time/Dry/Overcast
Sunshine hours for the year: 46:04 hrs Sunshine hours for the month: 00:00 hrs
Current evapotranspiration rate 0.0 mm per day. Yesterday's reading 0.2




Weather report/warning/Metars

Montreal / Pierre Elliot Trudeau International Airport, Que, Canada (CYUL) 45-28N 073-45W 36M
Dec 21, 2014 - 04:00 AM EST / 2014.12.21 0900 UTC
Wind: from the NNE (030 degrees) at 6 MPH (5 KT):0
Visibility: 4 mile(s):0
Sky conditions: overcast
Weather: light snow; mist
Temperature: 15 F (-9 C)
Windchill: 6 F (-14 C):1
Dew Point: 12 F (-11 C)
Relative Humidity: 85%
Pressure (altimeter): 30.37 in. Hg (1028 hPa)
ob: CYUL 210900Z 03005KT 4SM -SN BR OVC007 M09/M11 A3037 RMK ST8 SLP286
cycle: 9
Sherbrooke, Que., Canada (CYSC) 45-24N 071-53W
Dec 21, 2014 - 04:36 AM EST / 2014.12.21 0936 UTC
Wind: from the E (090 degrees) at 3 MPH (3 KT):0
Visibility: 1 3/4 mile(s):0
Sky conditions: overcast
Weather: mist
Temperature: 8 F (-13 C)
Dew Point: 6 F (-14 C)
Relative Humidity: 92%
Pressure (altimeter): 30.3 in. Hg (1026 hPa)
ob: CYSC 210936Z AUTO 09003KT 1 3/4SM BR OVC002 M13/M14 A3030 RMK SLP280
cycle: 9
St Jovite Automatic Weather Reporting System , Canada (CWJT) 46-04N 074-32W
Dec 21, 2014 - 04:00 AM EST / 2014.12.21 0900 UTC
Wind: from the N (010 degrees) at 1 MPH (1 KT):0
Temperature: 3.4 F (-15.9 C)
Dew Point: 0.5 F (-17.5 C)
Relative Humidity: 87%
Pressure tendency: 0.00 inches (0.1 hPa) higher than three hours ago
ob: CWJT 210900Z AUTO 01001KT M16/M18 RMK AO1 SLP289 T11591175 50001
cycle: 9
Ste Anne De Bell 1, Canada (CWVQ) 45-26N 073-56W
Dec 21, 2014 - 04:00 AM EST / 2014.12.21 0900 UTC
Wind: from the NE (050 degrees) at 3 MPH (3 KT):0
Temperature: 14.7 F (-9.6 C)
Dew Point: 12.4 F (-10.9 C)
Relative Humidity: 90%
ob: CWVQ 210900Z AUTO 05003KT M10/M11 RMK AO1 SOG 15 8001 SLP284 T10961109
cycle: 9
Montreal / Mirabel, Canada (CYMX) 45-41N 074-02W
Dec 21, 2014 - 04:00 AM EST / 2014.12.21 0900 UTC
Wind: from the ENE (060 degrees) at 3 MPH (3 KT):0
Visibility: 8 mile(s):0
Sky conditions: overcast
Temperature: 12 F (-11 C)
Dew Point: 8 F (-13 C)
Relative Humidity: 85%
Pressure (altimeter): 30.36 in. Hg (1028 hPa)
ob: CYMX 210900Z 06003KT 8SM FEW004 OVC008 M11/M13 A3036 RMK SF2SF6 SLP286
cycle: 9
L'Acadie, Canada (CWIZ) 45-18N 073-21W
Dec 21, 2014 - 04:00 AM EST / 2014.12.21 0900 UTC
Wind: from the NE (040 degrees) at 1 MPH (1 KT):0
Temperature: 12.0 F (-11.1 C)
Dew Point: 10.8 F (-11.8 C)
Relative Humidity: 94%
ob: CWIZ 210900Z AUTO 04001KT M11/M12 RMK AO1 T11111118
cycle: 9
St Anicet, Canada (CWBZ) 45-07N 074-17W 49M
Dec 21, 2014 - 04:00 AM EST / 2014.12.21 0900 UTC
Wind: from the E (090 degrees) at 2 MPH (2 KT):0
Temperature: 10.4 F (-12.0 C)
Dew Point: 8.8 F (-12.9 C)
Relative Humidity: 92%
Pressure tendency: 0.01 inches (0.3 hPa) higher than three hours ago
ob: CWBZ 210900Z AUTO 09002KT M12/M13 RMK AO1 SLP285 T11201129 50003
cycle: 9
Mount Washington, NH, United States (KMWN) 44-16N 071-18W 1910M
Dec 21, 2014 - 03:55 AM EST / 2014.12.21 0855 UTC
Wind: from the ESE (120 degrees) at 10 MPH (9 KT):0
Visibility: 110 mile(s):0
Sky conditions: overcast
Temperature: 17 F (-8 C)
Windchill: 5 F (-15 C):1
Dew Point: -7 F (-22 C)
Relative Humidity: 31%
ob: KMWN 210855Z 12009KT 110SM BKN/// FEW030 BKN100 OVC140 M08/M22 RMK TPS LWR BKN045 PTCHY VLY FG N-SE BINOVC
cycle: 9
Vancouver International Air-Port, B. C., Canada (CYVR) 49-11N 123-10W 2M
Dec 21, 2014 - 04:00 AM EST / 2014.12.21 0900 UTC
Wind: from the W (280 degrees) at 12 MPH (10 KT):0
Visibility: 15 mile(s):0
Sky conditions: mostly clear
Temperature: 44 F (7 C)
Dew Point: 42 F (6 C)
Relative Humidity: 93%
Pressure (altimeter): 29.5 in. Hg (998 hPa)
Pressure tendency: rising rapidly
ob: CYVR 210900Z 28010KT 15SM FEW055 07/06 A2950 RMK SC1 PRESRR SLP991
cycle: 9



The data is logged at two minute intervals, but there is data recorded every minute.

Use the RELOAD facility on your browser to retrieve the latest data.

Click here for a daily update of the averages/extremes to date for the month

Click here for Real Time Weather



Created by "Weather Display" software version 10.37R Build 51 at this start time/date 18:34 2014-12-15